Terminal Aerodrome Forecast
Issued by NWS

Current Version | Previous Version | Text Only | Print | Product List | Glossary On
Versions: 1 2 3 4 5 6 7 8 9 10 11 12 13 14 15 16 17 18 19 20 21
000
FTUS43 KDVN 191720
TAFCID
TAF
KCID 191720Z 1918/2018 13004KT P6SM FEW050
     FM200900 13003KT 4SM BR SCT120
     FM201400 17007KT P6SM BKN120=

USA.gov is the U.S. government's official web portal to all federal, state and local government web resources and services.